Time;durP1;ratioP1;P1;durP2;ratioP2;P2;SDS_P1;SDS_P2;PMS_P1;PMS_P2;Temp;Humidity;BMP_temperature;BMP_pressure;BME280_temperature;BME280_humidity;BME280_pressure;Samples;Min_cycle;Max_cycle;Signal;HPM_P1;HPM_P2
2022/01/20 00:01:19;;;;;;;9.88;2.70;;;;;;;3.92;85.19;103053.03;4985651;28;20044;-76
2022/01/20 00:03:47;;;;;;;13.50;2.60;;;;;;;3.91;85.07;103045.88;4985416;28;20042;-76
2022/01/20 00:09:18;;;;;;;11.10;2.58;;;;;;;3.87;85.15;103029.09;4985057;28;20945;-76
2022/01/20 00:28:16;;;;;;;14.85;2.55;;;;;;;3.85;86.00;103025.78;4984255;28;20485;-77
2022/01/20 00:33:49;;;;;;;8.45;2.13;;;;;;;3.82;85.78;103031.72;4952328;28;20042;-76
2022/01/20 00:39:04;;;;;;;10.77;2.47;;;;;;;3.78;85.94;103044.28;4985129;28;20549;-76
2022/01/20 00:41:32;;;;;;;10.43;2.80;;;;;;;3.77;85.76;103042.59;4983925;28;20104;-76
2022/01/20 00:43:58;;;;;;;12.20;2.58;;;;;;;3.72;86.21;103045.25;4951508;28;20080;-76
2022/01/20 00:46:25;;;;;;;8.15;2.38;;;;;;;3.69;86.31;103048.47;4984622;28;20149;-77
2022/01/20 00:48:52;;;;;;;8.57;2.75;;;;;;;3.72;86.52;103045.25;4983670;28;20046;-76
2022/01/20 00:51:19;;;;;;;7.85;1.98;;;;;;;3.72;86.30;103047.97;4985232;28;20042;-77
2022/01/20 00:53:46;;;;;;;10.52;2.92;;;;;;;3.71;86.25;103046.31;4984908;28;20671;-76
2022/01/20 00:56:14;;;;;;;8.55;2.30;;;;;;;3.72;86.48;103053.47;4984868;28;20100;-76
2022/01/20 00:58:40;;;;;;;9.85;2.42;;;;;;;3.73;86.61;103055.13;4984683;28;20470;-77
2022/01/20 01:01:07;;;;;;;8.50;2.65;;;;;;;3.73;86.46;103071.56;4966661;28;20042;-77
2022/01/20 01:03:34;;;;;;;18.52;3.95;;;;;;;3.71;85.96;103068.22;4985274;28;20043;-76
2022/01/20 01:06:13;;;;;;;12.93;4.20;;;;;;;3.70;86.23;103083.00;4982422;28;20990;-77
2022/01/20 01:08:41;;;;;;;11.07;2.55;;;;;;;3.69;86.29;103087.66;4985188;28;20046;-77
2022/01/20 01:11:08;;;;;;;11.73;3.50;;;;;;;3.68;85.97;103101.56;4985104;28;20438;-77
2022/01/20 01:13:37;;;;;;;15.18;2.95;;;;;;;3.67;86.19;103091.72;4967885;28;20056;-76
2022/01/20 01:16:06;;;;;;;12.50;3.17;;;;;;;3.65;86.05;103085.66;4967136;28;20050;-76
2022/01/20 01:21:43;;;;;;;12.43;3.88;;;;;;;3.59;86.15;103097.56;4984760;28;20046;-76
2022/01/20 01:24:11;;;;;;;10.07;3.40;;;;;;;3.53;86.62;103091.13;4985050;28;20046;-76
2022/01/20 01:26:38;;;;;;;7.78;2.70;;;;;;;3.51;86.47;103095.19;4984408;28;20055;-76
2022/01/20 01:29:19;;;;;;;9.90;2.25;;;;;;;3.51;86.59;103098.75;4984163;28;20034;-77
2022/01/20 01:31:47;;;;;;;11.25;2.58;;;;;;;3.50;86.30;103090.78;4984380;28;20041;-76
2022/01/20 01:34:14;;;;;;;9.02;3.05;;;;;;;3.47;86.46;103099.47;4960108;28;20134;-77
2022/01/20 01:37:36;;;;;;;16.60;4.47;;;;;;;3.45;86.50;103099.72;4974878;28;20065;-77
2022/01/20 01:39:32;;;;;;;14.20;3.47;;;;;;;3.43;86.79;103103.78;4966760;28;20548;-77
2022/01/20 01:42:00;;;;;;;7.38;3.20;;;;;;;3.40;86.53;103104.25;4974898;28;20130;-77
2022/01/20 01:44:30;;;;;;;11.52;3.42;;;;;;;3.38;86.75;103107.25;4981531;28;20538;-77
2022/01/20 01:46:58;;;;;;;12.60;2.90;;;;;;;3.37;86.59;103105.56;4973840;28;20639;-76
2022/01/20 01:49:25;;;;;;;12.18;2.90;;;;;;;3.38;86.79;103111.88;4977066;28;20496;-77
2022/01/20 01:51:53;;;;;;;6.97;2.25;;;;;;;3.35;86.81;103118.66;4975421;28;20267;-77
2022/01/20 01:54:20;;;;;;;8.25;3.20;;;;;;;3.34;86.90;103110.69;4976992;28;20046;-76
2022/01/20 01:56:48;;;;;;;8.07;2.80;;;;;;;3.32;86.80;103118.31;4974273;28;20425;-77
2022/01/20 01:59:15;;;;;;;15.95;2.47;;;;;;;3.32;86.75;103107.34;4973848;28;20929;-77
2022/01/20 02:01:42;;;;;;;6.03;2.50;;;;;;;3.29;86.88;103105.09;4973352;28;20117;-77
2022/01/20 02:04:15;;;;;;;9.27;2.72;;;;;;;3.23;86.80;103106.06;4974174;28;20047;-76
2022/01/20 02:07:41;;;;;;;10.10;3.80;;;;;;;3.22;87.02;103107.97;4975149;28;20050;-77
2022/01/20 02:20:23;;;;;;;8.15;2.80;;;;;;;3.11;87.50;103129.84;4976405;28;20464;-77
2022/01/20 02:22:51;;;;;;;13.73;3.38;;;;;;;3.12;86.87;103132.38;4977740;28;20053;-77
2022/01/20 02:25:24;;;;;;;12.50;3.38;;;;;;;3.12;87.36;103134.25;4975660;28;20097;-77
2022/01/20 02:27:51;;;;;;;14.18;3.47;;;;;;;3.12;87.22;103131.53;4978448;28;20060;-76
2022/01/20 02:30:21;;;;;;;10.43;3.08;;;;;;;3.11;87.23;103121.63;4976388;28;20039;-76
2022/01/20 02:32:54;;;;;;;11.60;4.20;;;;;;;3.14;87.27;103129.38;4977936;28;20046;-77
2022/01/20 02:35:22;;;;;;;11.98;3.13;;;;;;;3.12;87.27;103129.63;4976837;28;20042;-76
2022/01/20 02:37:56;;;;;;;10.23;2.92;;;;;;;3.15;87.45;103133.78;4977207;28;20483;-76
2022/01/20 02:45:55;;;;;;;18.98;3.50;;;;;;;3.16;87.05;103151.84;4977237;28;20038;-77
2022/01/20 02:48:22;;;;;;;7.70;2.67;;;;;;;3.18;87.36;103160.69;4961058;28;20039;-76
2022/01/20 02:50:49;;;;;;;9.65;2.45;;;;;;;3.14;87.36;103163.06;4976762;28;20093;-76
2022/01/20 02:53:16;;;;;;;8.90;2.65;;;;;;;3.10;87.49;103166.50;4976726;28;20513;-77
2022/01/20 02:55:42;;;;;;;12.48;3.50;;;;;;;3.11;87.45;103162.69;4977754;28;20049;-76
2022/01/20 02:58:09;;;;;;;14.20;3.00;;;;;;;3.11;87.19;103157.22;4976943;28;20520;-76
2022/01/20 03:00:37;;;;;;;12.35;3.47;;;;;;;3.12;87.31;103156.16;4981069;28;20508;-76
2022/01/20 03:03:04;;;;;;;11.55;2.70;;;;;;;3.10;87.11;103161.84;4955643;28;20035;-76
2022/01/20 03:05:31;;;;;;;11.82;2.35;;;;;;;3.07;87.21;103160.41;4976204;28;20067;-77
2022/01/20 03:08:00;;;;;;;9.20;2.30;;;;;;;3.08;87.20;103166.72;4956037;28;20053;-77
2022/01/20 03:10:28;;;;;;;15.05;2.85;;;;;;;3.07;87.32;103165.91;4977235;28;20104;-76
2022/01/20 03:12:55;;;;;;;16.88;3.00;;;;;;;3.06;87.03;103164.25;4960263;28;20450;-76
2022/01/20 03:15:23;;;;;;;5.35;2.00;;;;;;;3.02;87.22;103167.66;4976167;28;20042;-76
2022/01/20 03:17:50;;;;;;;7.50;2.60;;;;;;;3.02;87.19;103163.03;4978188;28;20141;-77
2022/01/20 03:20:17;;;;;;;13.60;3.03;;;;;;;2.99;87.26;103163.50;4975984;28;20500;-76
2022/01/20 03:22:44;;;;;;;7.32;2.80;;;;;;;2.97;87.36;103176.59;4978297;28;22325;-76
2022/01/20 03:25:11;;;;;;;8.68;2.20;;;;;;;2.95;87.62;103172.44;4976551;28;21294;-77
2022/01/20 03:27:38;;;;;;;7.72;2.85;;;;;;;2.96;88.16;103185.06;4959820;28;20046;-76
2022/01/20 03:30:06;;;;;;;8.85;2.83;;;;;;;2.92;87.92;103179.19;4975120;28;20043;-76
2022/01/20 03:32:34;;;;;;;9.43;3.30;;;;;;;2.91;88.09;103172.06;4976554;28;20035;-76
2022/01/20 03:35:03;;;;;;;7.75;2.65;;;;;;;2.90;88.24;103161.34;4985245;28;20050;-76
2022/01/20 03:37:30;;;;;;;16.45;4.70;;;;;;;2.89;87.84;103166.00;4985064;28;20034;-76
2022/01/20 03:39:57;;;;;;;6.22;1.88;;;;;;;2.89;87.83;103171.47;4986084;28;20041;-76
2022/01/20 03:42:23;;;;;;;11.27;3.00;;;;;;;2.88;88.07;103175.28;4968087;28;20044;-76
2022/01/20 03:44:52;;;;;;;15.15;3.45;;;;;;;2.87;87.78;103178.25;4999980;28;20498;-76
2022/01/20 03:47:20;;;;;;;9.60;2.30;;;;;;;2.85;87.86;103183.94;4986074;28;20050;-77
2022/01/20 03:52:19;;;;;;;14.00;2.83;;;;;;;2.79;88.27;103189.50;4986064;28;20053;-76
2022/01/20 03:54:47;;;;;;;16.17;2.67;;;;;;;2.77;88.32;103181.56;4999439;28;20042;-76
2022/01/20 03:57:14;;;;;;;7.78;2.50;;;;;;;2.72;88.88;103178.69;4985576;28;20386;-76
2022/01/20 03:59:41;;;;;;;11.55;3.58;;;;;;;2.69;89.04;103187.34;4985512;28;20486;-76
2022/01/20 04:02:07;;;;;;;6.18;2.10;;;;;;;2.68;88.92;103173.91;4966608;28;20042;-76
2022/01/20 04:04:34;;;;;;;5.50;2.30;;;;;;;2.66;89.44;103178.78;4966824;28;20050;-76
2022/01/20 04:07:04;;;;;;;13.68;5.30;;;;;;;2.65;88.91;103183.41;4984114;28;20044;-76
2022/01/20 04:09:31;;;;;;;9.10;2.70;;;;;;;2.64;89.22;103180.91;4966816;28;20425;-76
2022/01/20 04:11:58;;;;;;;10.00;2.47;;;;;;;2.65;89.17;103188.88;4985450;28;20034;-76
2022/01/20 04:14:27;;;;;;;8.30;2.53;;;;;;;2.64;89.43;103187.22;4999950;28;20046;-76
2022/01/20 04:19:30;;;;;;;7.72;3.30;;;;;;;2.63;88.98;103171.88;4985407;28;20082;-76
2022/01/20 04:21:58;;;;;;;17.77;3.17;;;;;;;2.62;89.45;103178.41;4985567;28;20121;-77
2022/01/20 04:24:26;;;;;;;8.60;2.00;;;;;;;2.62;88.89;103170.19;4966916;28;20042;-77
2022/01/20 04:26:53;;;;;;;9.68;2.85;;;;;;;2.61;88.96;103171.28;4984018;28;20050;-77
2022/01/20 04:29:19;;;;;;;8.73;2.70;;;;;;;2.61;89.18;103175.91;4984733;28;20048;-77
2022/01/20 04:31:48;;;;;;;24.65;4.20;;;;;;;2.56;89.38;103184.81;4982812;28;20466;-77
2022/01/20 04:34:16;;;;;;;6.60;2.65;;;;;;;2.57;89.25;103170.06;4976547;28;20577;-77
2022/01/20 04:36:45;;;;;;;6.95;2.53;;;;;;;2.55;89.75;103171.34;4975215;28;20176;-77
2022/01/20 04:39:17;;;;;;;13.50;2.65;;;;;;;2.55;89.57;103166.72;4957455;28;20481;-77
2022/01/20 04:41:44;;;;;;;9.55;2.40;;;;;;;2.55;89.68;103166.72;4975956;28;20050;-77
2022/01/20 04:47:15;;;;;;;9.80;2.58;;;;;;;2.59;89.47;103173.41;4976018;28;20065;-77
2022/01/20 04:57:57;;;;;;;7.38;2.88;;;;;;;2.51;89.52;103187.41;4975444;28;20047;-77
2022/01/20 05:00:24;;;;;;;10.40;3.05;;;;;;;2.51;89.63;103186.56;4973927;28;20448;-77
2022/01/20 05:02:51;;;;;;;6.25;2.28;;;;;;;2.50;89.65;103184.91;4973522;28;20521;-77
2022/01/20 05:05:18;;;;;;;14.48;3.30;;;;;;;2.51;89.72;103192.88;4974713;28;20537;-77
2022/01/20 05:07:45;;;;;;;9.50;3.35;;;;;;;2.50;89.93;103198.56;4976033;28;20051;-76
2022/01/20 05:10:13;;;;;;;9.70;3.10;;;;;;;2.50;89.84;103190.38;4973554;28;20053;-77
2022/01/20 05:15:16;;;;;;;5.90;2.58;;;;;;;2.43;90.45;103202.25;4973063;28;20579;-77
2022/01/20 05:17:42;;;;;;;8.30;2.83;;;;;;;2.45;90.08;103211.03;4975684;28;20046;-76
2022/01/20 05:20:10;;;;;;;13.40;2.75;;;;;;;2.42;90.50;103194.25;4973941;28;20430;-77
2022/01/20 05:22:43;;;;;;;10.60;2.72;;;;;;;2.43;89.96;103206.88;4974522;28;20043;-77
2022/01/20 05:25:10;;;;;;;7.97;2.72;;;;;;;2.44;89.98;103214.00;4975296;28;20034;-77
2022/01/20 05:27:36;;;;;;;18.33;5.60;;;;;;;2.43;90.26;103217.81;4975051;28;20042;-76
2022/01/20 05:30:04;;;;;;;10.38;3.10;;;;;;;2.45;89.98;103215.69;4974266;28;20055;-77
2022/01/20 05:32:30;;;;;;;11.73;2.72;;;;;;;2.46;90.00;103223.63;4973922;28;20039;-77
2022/01/20 05:34:57;;;;;;;11.13;3.67;;;;;;;2.45;89.71;103232.91;4982499;28;20043;-76
2022/01/20 05:37:24;;;;;;;7.32;2.67;;;;;;;2.44;89.77;103224.94;4981731;28;20046;-77
2022/01/20 05:39:50;;;;;;;10.23;3.08;;;;;;;2.40;90.19;103219.09;4984573;28;20034;-77
2022/01/20 05:42:17;;;;;;;10.05;3.25;;;;;;;2.41;89.94;103222.66;4966692;28;20471;-77
2022/01/20 05:44:49;;;;;;;14.00;4.15;;;;;;;2.39;90.16;103224.78;4983454;28;20573;-77
2022/01/20 05:47:18;;;;;;;11.13;3.45;;;;;;;2.37;90.02;103235.13;4983720;28;20034;-76
2022/01/20 05:49:45;;;;;;;14.50;3.88;;;;;;;2.39;90.35;103238.47;4984423;28;20036;-77
2022/01/20 05:52:15;;;;;;;8.43;2.70;;;;;;;2.40;90.09;103229.19;4984712;28;20060;-77
2022/01/20 05:54:42;;;;;;;7.97;2.70;;;;;;;2.39;89.95;103242.03;4987707;28;20125;-77
2022/01/20 05:57:10;;;;;;;11.20;3.75;;;;;;;2.40;89.65;103248.34;5003189;28;20489;-77
2022/01/20 05:59:38;;;;;;;11.45;3.60;;;;;;;2.37;89.75;103246.06;4987941;28;20044;-78
2022/01/20 06:02:33;;;;;;;16.23;3.40;;;;;;;2.34;90.07;103247.34;4984956;28;20845;-77
2022/01/20 06:04:51;;;;;;;11.95;3.22;;;;;;;2.30;89.91;103237.94;4986727;28;20089;-77
2022/01/20 06:07:20;;;;;;;10.00;3.10;;;;;;;2.30;89.96;103240.66;4987650;28;20050;-77
2022/01/20 06:09:46;;;;;;;11.50;3.17;;;;;;;2.28;90.10;103241.97;4987274;28;20126;-76
2022/01/20 06:12:13;;;;;;;11.15;3.63;;;;;;;2.26;90.10;103244.09;4987452;28;20039;-77
2022/01/20 06:14:40;;;;;;;13.52;3.25;;;;;;;2.26;90.38;103246.81;4987480;28;20040;-77
2022/01/20 06:17:07;;;;;;;17.25;3.55;;;;;;;2.27;90.74;103253.97;4969746;28;20046;-77
2022/01/20 06:19:33;;;;;;;12.15;4.03;;;;;;;2.27;90.45;103257.56;4987572;28;20043;-77
2022/01/20 06:22:00;;;;;;;9.05;3.75;;;;;;;2.28;90.37;103269.28;4987272;28;20046;-77
2022/01/20 06:24:27;;;;;;;11.60;3.83;;;;;;;2.28;89.91;103278.34;4969478;28;20068;-77
2022/01/20 06:26:54;;;;;;;13.25;3.50;;;;;;;2.28;90.17;103291.16;4986357;28;20576;-77
2022/01/20 06:29:21;;;;;;;9.73;3.38;;;;;;;2.27;90.04;103316.84;4987598;28;20128;-77
2022/01/20 06:31:48;;;;;;;8.77;2.97;;;;;;;2.27;89.85;103303.16;4968486;28;20377;-76
2022/01/20 06:34:15;;;;;;;14.45;3.92;;;;;;;2.24;89.98;103303.63;4987390;28;20050;-77
2022/01/20 06:36:41;;;;;;;19.38;4.65;;;;;;;2.23;89.80;103301.94;4986672;28;20057;-77
2022/01/20 06:39:08;;;;;;;13.13;3.20;;;;;;;2.18;89.91;103308.09;4987415;28;20056;-76
2022/01/20 06:41:37;;;;;;;8.35;3.22;;;;;;;2.15;90.21;103302.25;4969416;28;20502;-77
2022/01/20 06:44:05;;;;;;;9.13;3.15;;;;;;;2.13;89.77;103310.69;4967911;28;20042;-76
2022/01/20 06:46:32;;;;;;;16.00;4.00;;;;;;;2.10;90.31;103315.75;4985964;28;20039;-76
2022/01/20 06:48:59;;;;;;;10.82;4.03;;;;;;;2.11;90.40;103311.97;4986830;28;20070;-76
2022/01/20 06:51:26;;;;;;;12.10;4.95;;;;;;;2.12;90.67;103321.84;4985453;28;20038;-77
2022/01/20 06:53:52;;;;;;;14.10;3.83;;;;;;;2.10;90.41;103332.13;4986443;28;20031;-77
2022/01/20 06:56:19;;;;;;;11.32;3.15;;;;;;;2.09;90.62;103336.75;4986619;28;20431;-77
2022/01/20 06:59:05;;;;;;;19.40;4.40;;;;;;;2.10;90.66;103340.34;4987000;28;20057;-77
2022/01/20 07:01:32;;;;;;;12.95;3.42;;;;;;;2.11;90.21;103340.13;4986573;28;20054;-77
2022/01/20 07:03:59;;;;;;;10.20;3.58;;;;;;;2.12;90.14;103339.06;4986122;28;20034;-77
2022/01/20 07:06:27;;;;;;;12.40;3.72;;;;;;;2.11;90.19;103344.75;4967976;28;20046;-76
2022/01/20 07:08:57;;;;;;;8.70;3.72;;;;;;;2.11;90.35;103351.06;4969348;28;20038;-76
2022/01/20 07:11:24;;;;;;;12.95;4.30;;;;;;;2.10;90.05;103352.09;4987433;28;20069;-77
2022/01/20 07:13:51;;;;;;;14.00;3.92;;;;;;;2.09;89.96;103346.88;4968663;28;20045;-76
2022/01/20 07:16:17;;;;;;;15.85;6.40;;;;;;;2.07;90.21;103352.56;4985495;28;21442;-77
2022/01/20 07:18:44;;;;;;;10.68;3.35;;;;;;;2.03;90.58;103359.53;4986087;28;20037;-77
2022/01/20 07:21:11;;;;;;;9.77;3.80;;;;;;;2.03;90.36;103364.16;4967615;28;20065;-77
2022/01/20 07:23:38;;;;;;;11.30;3.97;;;;;;;2.02;90.19;103362.47;4987058;28;20042;-77
2022/01/20 07:26:05;;;;;;;13.35;4.78;;;;;;;2.03;90.21;103364.16;4984608;28;20071;-76
2022/01/20 07:28:32;;;;;;;8.25;3.80;;;;;;;2.01;90.00;103372.59;4985725;28;20037;-77
2022/01/20 07:30:59;;;;;;;15.07;3.63;;;;;;;2.01;90.51;103371.75;4968059;28;20137;-76
2022/01/20 07:33:26;;;;;;;12.07;3.88;;;;;;;2.01;90.12;103383.53;4967283;28;20054;-76
2022/01/20 07:35:54;;;;;;;12.30;3.72;;;;;;;1.99;90.12;103369.22;4986429;28;20422;-77
2022/01/20 07:38:20;;;;;;;10.77;3.50;;;;;;;1.96;90.30;103366.13;4967708;28;20907;-76
2022/01/20 07:40:47;;;;;;;10.50;3.40;;;;;;;1.90;90.56;103365.13;4985825;28;20048;-77
2022/01/20 07:43:14;;;;;;;12.43;3.35;;;;;;;1.89;90.85;103368.06;4985771;28;20048;-77
2022/01/20 07:45:42;;;;;;;17.38;5.20;;;;;;;1.87;90.88;103370.19;4985962;28;20117;-76
2022/01/20 07:48:09;;;;;;;27.60;4.95;;;;;;;1.86;91.21;103363.88;4986646;28;21807;-77
2022/01/20 07:50:37;;;;;;;20.88;4.25;;;;;;;1.90;91.28;103369.75;4968017;28;20529;-77
2022/01/20 07:53:04;;;;;;;14.13;3.67;;;;;;;1.88;91.06;103367.22;4986032;28;20470;-77
2022/01/20 07:55:31;;;;;;;12.30;4.40;;;;;;;1.91;91.26;103369.50;4986368;28;20035;-76
2022/01/20 07:57:57;;;;;;;16.60;3.65;;;;;;;1.92;90.78;103376.66;4985704;28;20051;-76
2022/01/20 08:00:24;;;;;;;13.13;3.65;;;;;;;1.93;90.59;103378.34;4985285;28;20034;-76
2022/01/20 08:02:51;;;;;;;12.13;3.90;;;;;;;1.96;90.87;103377.06;4986842;28;20062;-76
2022/01/20 08:05:18;;;;;;;19.70;4.50;;;;;;;1.96;90.43;103388.00;4984459;28;20042;-76
2022/01/20 08:07:45;;;;;;;13.73;3.75;;;;;;;1.92;90.58;103384.84;4984691;28;20122;-76
2022/01/20 08:10:13;;;;;;;13.70;4.07;;;;;;;1.89;91.06;103384.47;4986744;28;21541;-76
2022/01/20 08:12:41;;;;;;;11.10;3.70;;;;;;;1.85;91.37;103384.91;4984969;28;20050;-76
2022/01/20 08:15:09;;;;;;;15.10;4.15;;;;;;;1.83;91.16;103381.56;4967810;28;20046;-76
2022/01/20 08:17:37;;;;;;;10.63;3.67;;;;;;;1.83;91.49;103387.03;4984760;28;20061;-76
2022/01/20 08:20:04;;;;;;;16.63;5.40;;;;;;;1.84;91.38;103388.72;4985479;28;20371;-75
2022/01/20 08:22:34;;;;;;;15.45;5.93;;;;;;;1.85;91.37;103387.63;4985411;28;20066;-76
2022/01/20 08:25:05;;;;;;;17.10;5.07;;;;;;;1.87;91.37;103383.84;4967691;28;20061;-76
2022/01/20 08:27:33;;;;;;;21.42;5.63;;;;;;;1.89;91.47;103379.00;4982810;28;20446;-76
2022/01/20 08:30:00;;;;;;;22.27;5.80;;;;;;;1.93;91.40;103391.16;4984588;28;20549;-75
2022/01/20 08:32:26;;;;;;;13.38;5.32;;;;;;;1.94;91.61;103388.19;4982853;28;20069;-76
2022/01/20 08:34:53;;;;;;;12.07;4.80;;;;;;;1.97;91.70;103387.75;4962627;28;20050;-76
2022/01/20 08:37:20;;;;;;;16.73;5.55;;;;;;;2.02;91.56;103384.34;4976087;28;20070;-77
2022/01/20 08:39:47;;;;;;;13.60;5.60;;;;;;;2.08;91.64;103399.84;4975239;28;20121;-76
2022/01/20 08:42:14;;;;;;;18.15;5.05;;;;;;;2.13;91.64;103405.47;4975710;28;20030;-76
2022/01/20 08:44:41;;;;;;;10.27;4.90;;;;;;;2.16;91.91;103413.22;4973609;28;20060;-76
2022/01/20 08:47:14;;;;;;;16.38;5.07;;;;;;;2.21;91.47;103416.13;4972872;28;20046;-76
2022/01/20 08:49:48;;;;;;;18.88;5.93;;;;;;;2.24;92.07;103404.75;4974118;28;20125;-76
2022/01/20 08:52:17;;;;;;;24.75;5.40;;;;;;;2.27;91.92;103410.59;4972710;28;20557;-77
2022/01/20 08:54:45;;;;;;;12.50;3.95;;;;;;;2.33;91.75;103415.16;4972962;28;20042;-75
2022/01/20 08:57:14;;;;;;;21.73;6.50;;;;;;;2.40;92.07;103420.56;4974548;28;20042;-76
2022/01/20 08:59:42;;;;;;;28.77;6.13;;;;;;;2.46;92.09;103425.16;4956371;28;20042;-76
2022/01/20 09:02:10;;;;;;;16.25;4.60;;;;;;;2.50;92.09;103425.50;4975223;28;20035;-76
2022/01/20 09:04:39;;;;;;;16.83;6.25;;;;;;;2.58;91.94;103428.78;4964168;28;20088;-79
2022/01/20 09:07:06;;;;;;;17.63;5.78;;;;;;;2.64;92.15;103416.94;4973101;28;20398;-77
2022/01/20 09:09:41;;;;;;;24.77;5.47;;;;;;;2.72;92.01;103433.06;4969187;28;20687;-77
2022/01/20 09:17:28;;;;;;;19.30;5.13;;;;;;;2.92;92.12;103430.94;4973525;28;20540;-77
2022/01/20 09:19:56;;;;;;;17.15;6.25;;;;;;;2.97;92.10;103433.81;4973864;28;20122;-77
2022/01/20 09:22:23;;;;;;;18.52;4.68;;;;;;;3.01;92.14;103426.81;4975291;28;20046;-77
2022/01/20 09:24:50;;;;;;;13.38;5.57;;;;;;;3.07;91.77;103442.31;4973326;28;20121;-77
2022/01/20 09:27:18;;;;;;;20.30;5.78;;;;;;;3.13;91.77;103436.97;4973358;28;20405;-78
2022/01/20 09:29:46;;;;;;;17.65;6.70;;;;;;;3.18;92.11;103437.16;4956256;28;20525;-77
2022/01/20 09:32:16;;;;;;;24.85;5.90;;;;;;;3.23;92.14;103449.06;4957015;28;20045;-76
2022/01/20 09:34:43;;;;;;;37.80;7.38;;;;;;;3.27;91.88;103449.44;4974694;28;20138;-75
2022/01/20 09:37:11;;;;;;;18.73;4.35;;;;;;;3.32;92.00;103468.75;4974663;28;20043;-77
2022/01/20 09:39:40;;;;;;;13.85;5.32;;;;;;;3.36;91.66;103475.44;4956135;28;20126;-76
2022/01/20 09:42:08;;;;;;;13.68;4.05;;;;;;;3.40;91.92;103473.91;4975206;28;20050;-76
2022/01/20 09:44:35;;;;;;;18.25;5.05;;;;;;;3.45;91.94;103474.03;4971448;28;20093;-76
2022/01/20 09:47:03;;;;;;;25.08;4.85;;;;;;;3.48;91.70;103474.44;4985964;28;20225;-76
2022/01/20 09:49:30;;;;;;;10.73;3.83;;;;;;;3.49;91.63;103480.75;4974444;28;20100;-76
2022/01/20 09:51:57;;;;;;;18.20;4.53;;;;;;;3.52;92.12;103461.94;4972092;28;20043;-76
2022/01/20 09:54:24;;;;;;;16.42;6.07;;;;;;;3.54;91.84;103469.94;4972960;28;20050;-76
2022/01/20 09:56:50;;;;;;;18.15;3.92;;;;;;;3.52;91.24;103464.66;4973588;28;20043;-77
2022/01/20 09:59:17;;;;;;;18.60;5.25;;;;;;;3.48;91.54;103465.38;4975737;28;20046;-76
2022/01/20 10:01:47;;;;;;;15.07;5.32;;;;;;;3.42;91.31;103458.91;4956689;28;20042;-76
2022/01/20 10:04:35;;;;;;;19.45;4.82;;;;;;;3.39;90.79;103473.06;4979688;28;20034;-76
2022/01/20 10:07:08;;;;;;;15.93;3.83;;;;;;;3.35;91.01;103479.25;4972440;28;20042;-77
2022/01/20 10:09:41;;;;;;;13.10;3.35;;;;;;;3.36;90.92;103491.88;4955934;28;20089;-76
2022/01/20 10:12:10;;;;;;;17.75;4.18;;;;;;;3.39;90.97;103485.94;4957430;28;20951;-76
2022/01/20 10:14:49;;;;;;;14.38;3.83;;;;;;;3.42;91.05;103483.56;4956833;28;20038;-76
2022/01/20 10:17:29;;;;;;;11.60;4.15;;;;;;;3.44;90.75;103478.69;4953407;28;20663;-76
2022/01/20 10:20:05;;;;;;;24.17;4.20;;;;;;;3.44;90.79;103473.19;4923303;28;20046;-76
2022/01/20 10:22:35;;;;;;;15.98;5.35;;;;;;;3.48;90.96;103484.53;4903956;28;20734;-76
2022/01/20 10:25:10;;;;;;;17.10;5.55;;;;;;;3.46;90.91;103482.03;4924792;28;20240;-76
2022/01/20 10:27:54;;;;;;;17.17;5.00;;;;;;;3.43;90.62;103492.63;4904740;28;20151;-76
2022/01/20 10:30:25;;;;;;;16.45;5.10;;;;;;;3.42;90.76;103490.94;4924019;28;20043;-76
2022/01/20 10:32:55;;;;;;;12.10;4.03;;;;;;;3.41;90.29;103492.84;4965805;28;20402;-76
2022/01/20 10:35:28;;;;;;;19.63;6.93;;;;;;;3.42;90.77;103501.88;4983772;28;20053;-76
2022/01/20 10:38:10;;;;;;;17.77;4.65;;;;;;;3.45;90.70;103491.31;4997708;28;20046;-76
2022/01/20 10:40:50;;;;;;;17.17;4.75;;;;;;;3.55;91.25;103509.94;4967925;28;20086;-76
2022/01/20 10:43:26;;;;;;;16.08;5.10;;;;;;;3.66;91.16;103510.00;4986397;28;20038;-77
2022/01/20 10:46:10;;;;;;;14.50;4.30;;;;;;;3.76;91.37;103527.78;5000198;28;20045;-77
2022/01/20 10:48:38;;;;;;;14.15;4.20;;;;;;;3.84;91.44;103522.81;4984475;28;20108;-77
2022/01/20 10:51:34;;;;;;;18.13;4.50;;;;;;;3.92;91.19;103521.66;4986425;28;20125;-77
2022/01/20 10:54:15;;;;;;;20.08;4.05;;;;;;;4.01;91.18;103517.50;4954070;28;20465;-76
2022/01/20 10:56:57;;;;;;;10.93;3.90;;;;;;;4.09;91.11;103520.75;4987668;28;20030;-77
2022/01/20 10:59:25;;;;;;;14.15;3.90;;;;;;;4.17;91.10;103517.69;4985137;28;20046;-77
2022/01/20 11:02:07;;;;;;;13.50;3.60;;;;;;;4.26;91.07;103520.91;4984490;28;20048;-77
2022/01/20 11:04:36;;;;;;;;;;;;;;;4.34;91.15;103517.84;4968420;28;20042;-77
2022/01/20 11:07:06;;;;;;;9.75;3.50;;;;;;;4.44;91.46;103522.72;4967456;28;19933;-77
2022/01/20 11:09:42;;;;;;;18.35;3.22;;;;;;;4.53;91.15;103510.31;4964853;28;20100;-77
2022/01/20 11:12:14;;;;;;;12.13;3.05;;;;;;;4.63;91.02;103510.59;4983439;28;20125;-77
2022/01/20 11:14:44;;;;;;;15.63;3.28;;;;;;;4.70;91.28;103512.13;4986539;28;20085;-77
2022/01/20 11:17:22;;;;;;;13.23;4.35;;;;;;;4.80;90.89;103515.09;4997454;28;20085;-77
2022/01/20 11:19:49;;;;;;;15.05;3.38;;;;;;;4.85;90.82;103514.38;4985855;28;20034;-77
2022/01/20 11:22:18;;;;;;;14.90;5.80;;;;;;;4.91;90.81;103511.53;4982539;28;20054;-77
2022/01/20 11:24:57;;;;;;;24.95;5.22;;;;;;;4.98;90.27;103519.63;4984464;28;20054;-77
2022/01/20 11:27:40;;;;;;;13.35;3.05;;;;;;;5.01;90.14;103510.06;4983771;28;20473;-77
2022/01/20 11:30:26;;;;;;;20.02;5.82;;;;;;;5.05;90.64;103520.34;4985548;28;20034;-78
2022/01/20 11:33:11;;;;;;;16.55;4.55;;;;;;;5.08;89.88;103525.38;4984581;28;20053;-81
2022/01/20 11:35:49;;;;;;;10.15;3.40;;;;;;;5.08;89.22;103514.38;4984374;28;20046;-77
2022/01/20 11:38:19;;;;;;;15.48;5.10;;;;;;;5.11;89.92;103519.38;4984399;28;20042;-78
2022/01/20 11:40:55;;;;;;;33.85;9.50;;;;;;;5.15;89.82;103523.31;4985612;28;20554;-77
2022/01/20 11:43:35;;;;;;;20.77;7.65;;;;;;;5.18;89.51;103530.25;4979137;28;20026;-76
2022/01/20 11:46:15;;;;;;;16.65;5.10;;;;;;;5.19;89.66;103531.91;4965823;28;20042;-77
2022/01/20 11:48:58;;;;;;;14.35;5.07;;;;;;;5.22;89.45;103535.00;4967358;28;20144;-77
2022/01/20 11:51:49;;;;;;;15.57;4.82;;;;;;;5.23;89.67;103528.44;4965698;28;20080;-77
2022/01/20 11:54:35;;;;;;;24.90;6.47;;;;;;;5.21;88.90;103516.88;4984889;28;20050;-77
2022/01/20 11:57:10;;;;;;;19.02;5.38;;;;;;;5.17;88.69;103529.41;4984674;28;20074;-77
2022/01/20 12:00:04;;;;;;;15.98;4.45;;;;;;;5.15;88.39;103519.72;4984354;28;20096;-77
2022/01/20 12:02:38;;;;;;;18.75;4.95;;;;;;;5.17;88.48;103521.16;4957323;28;20089;-77
2022/01/20 12:05:26;;;;;;;13.85;4.25;;;;;;;5.25;88.24;103515.28;4966695;28;20055;-77
2022/01/20 12:08:20;;;;;;;19.05;3.60;;;;;;;5.34;87.96;103502.88;4960802;28;20050;-77
2022/01/20 12:11:19;;;;;;;16.83;5.70;;;;;;;5.42;87.36;103515.38;4965747;28;20133;-77
2022/01/20 12:13:51;;;;;;;15.52;3.92;;;;;;;5.50;87.79;103513.09;4942135;28;20054;-77
2022/01/20 12:16:19;;;;;;;16.33;4.60;;;;;;;5.57;87.72;103512.94;4984872;28;20133;-77
2022/01/20 12:18:51;;;;;;;17.70;5.32;;;;;;;5.64;87.91;103518.31;4967115;28;20065;-76
2022/01/20 12:21:19;;;;;;;19.52;6.65;;;;;;;5.69;88.17;103505.50;4985206;28;20529;-77
2022/01/20 12:23:47;;;;;;;17.58;6.68;;;;;;;5.76;88.03;103510.81;4966591;28;20042;-77
2022/01/20 12:26:15;;;;;;;15.23;5.50;;;;;;;5.84;88.15;103514.03;4965567;28;20401;-76
2022/01/20 12:28:43;;;;;;;19.25;5.22;;;;;;;5.90;88.14;103501.25;4984249;28;20033;-77
2022/01/20 12:31:12;;;;;;;11.95;3.67;;;;;;;5.97;87.88;103502.75;4983125;28;20136;-77
2022/01/20 12:33:52;;;;;;;18.58;3.85;;;;;;;6.04;87.40;103497.91;4977866;28;20046;-76
2022/01/20 12:36:19;;;;;;;14.25;4.97;;;;;;;6.11;87.34;103509.63;4971161;28;20109;-77
2022/01/20 12:38:48;;;;;;;15.90;5.00;;;;;;;6.17;87.22;103496.75;4955748;28;20049;-77
2022/01/20 12:41:19;;;;;;;18.58;6.50;;;;;;;6.22;87.29;103499.63;4973992;28;20417;-77
2022/01/20 12:43:55;;;;;;;17.13;5.15;;;;;;;6.27;87.46;103496.13;4986831;28;20046;-77
2022/01/20 12:46:25;;;;;;;18.45;5.20;;;;;;;6.29;87.09;103492.03;4956298;28;20046;-76
2022/01/20 12:49:16;;;;;;;17.60;4.85;;;;;;;6.27;85.07;103485.94;4975311;28;20043;-77